sensor_id;sensor_type;location;lat;lon;timestamp;temperature;humidity
3492;DHT22;1760;52.480;13.422;2022-07-23T00:01:45;20.10;99.90
3492;DHT22;1760;52.480;13.422;2022-07-23T00:04:13;20.00;99.90
3492;DHT22;1760;52.480;13.422;2022-07-23T00:06:40;20.00;99.90
3492;DHT22;1760;52.480;13.422;2022-07-23T00:09:07;19.90;99.90
3492;DHT22;1760;52.480;13.422;2022-07-23T00:11:34;19.90;99.90
3492;DHT22;1760;52.480;13.422;2022-07-23T00:14:00;19.90;99.90
3492;DHT22;1760;52.480;13.422;2022-07-23T00:16:27;19.90;99.90
3492;DHT22;1760;52.480;13.422;2022-07-23T00:18:57;19.90;99.90
3492;DHT22;1760;52.480;13.422;2022-07-23T00:21:26;20.00;99.90
3492;DHT22;1760;52.480;13.422;2022-07-23T00:23:53;20.00;99.90
3492;DHT22;1760;52.480;13.422;2022-07-23T00:26:20;20.00;99.90
3492;DHT22;1760;52.480;13.422;2022-07-23T00:28:47;19.90;99.90
3492;DHT22;1760;52.480;13.422;2022-07-23T00:31:13;19.90;99.90
3492;DHT22;1760;52.480;13.422;2022-07-23T00:33:40;19.90;99.90
3492;DHT22;1760;52.480;13.422;2022-07-23T00:36:11;19.80;99.90
3492;DHT22;1760;52.480;13.422;2022-07-23T00:38:41;19.90;99.90
3492;DHT22;1760;52.480;13.422;2022-07-23T00:41:07;19.80;99.90
3492;DHT22;1760;52.480;13.422;2022-07-23T00:43:34;19.80;99.90
3492;DHT22;1760;52.480;13.422;2022-07-23T00:46:01;19.90;99.90
3492;DHT22;1760;52.480;13.422;2022-07-23T00:48:28;19.90;99.90
3492;DHT22;1760;52.480;13.422;2022-07-23T00:50:55;19.90;99.90
3492;DHT22;1760;52.480;13.422;2022-07-23T00:53:23;19.90;99.90
3492;DHT22;1760;52.480;13.422;2022-07-23T00:55:50;19.80;99.90
3492;DHT22;1760;52.480;13.422;2022-07-23T00:58:18;19.80;99.90
3492;DHT22;1760;52.480;13.422;2022-07-23T01:00:45;19.80;99.90
3492;DHT22;1760;52.480;13.422;2022-07-23T01:03:12;19.80;99.90
3492;DHT22;1760;52.480;13.422;2022-07-23T01:05:45;19.70;99.90
3492;DHT22;1760;52.480;13.422;2022-07-23T01:08:18;19.70;99.90
3492;DHT22;1760;52.480;13.422;2022-07-23T01:10:50;19.70;99.90
3492;DHT22;1760;52.480;13.422;2022-07-23T01:13:18;19.70;99.90
3492;DHT22;1760;52.480;13.422;2022-07-23T01:15:45;19.70;99.90
3492;DHT22;1760;52.480;13.422;2022-07-23T01:18:11;19.70;99.90
3492;DHT22;1760;52.480;13.422;2022-07-23T01:20:38;19.70;99.90
3492;DHT22;1760;52.480;13.422;2022-07-23T01:23:06;19.70;99.90
3492;DHT22;1760;52.480;13.422;2022-07-23T01:25:33;19.70;99.90
3492;DHT22;1760;52.480;13.422;2022-07-23T01:28:00;19.70;99.90
3492;DHT22;1760;52.480;13.422;2022-07-23T01:30:30;19.60;99.90
3492;DHT22;1760;52.480;13.422;2022-07-23T01:32:57;19.60;99.90
3492;DHT22;1760;52.480;13.422;2022-07-23T01:35:25;19.60;99.90
3492;DHT22;1760;52.480;13.422;2022-07-23T01:38:01;19.60;99.90
3492;DHT22;1760;52.480;13.422;2022-07-23T01:40:29;19.60;99.90
3492;DHT22;1760;52.480;13.422;2022-07-23T01:42:56;19.50;99.90
3492;DHT22;1760;52.480;13.422;2022-07-23T01:45:23;19.50;99.90
3492;DHT22;1760;52.480;13.422;2022-07-23T01:47:49;19.40;99.90
3492;DHT22;1760;52.480;13.422;2022-07-23T01:50:16;19.40;99.90
3492;DHT22;1760;52.480;13.422;2022-07-23T01:52:43;19.40;99.90
3492;DHT22;1760;52.480;13.422;2022-07-23T01:55:10;19.40;99.90
3492;DHT22;1760;52.480;13.422;2022-07-23T01:57:38;19.40;99.90
3492;DHT22;1760;52.480;13.422;2022-07-23T02:00:06;19.30;99.90
3492;DHT22;1760;52.480;13.422;2022-07-23T02:02:33;19.30;99.90
3492;DHT22;1760;52.480;13.422;2022-07-23T02:05:00;19.30;99.90
3492;DHT22;1760;52.480;13.422;2022-07-23T02:07:39;19.30;99.90
3492;DHT22;1760;52.480;13.422;2022-07-23T02:10:08;19.30;99.90
3492;DHT22;1760;52.480;13.422;2022-07-23T02:12:35;19.30;99.90
3492;DHT22;1760;52.480;13.422;2022-07-23T02:15:04;19.30;99.90
3492;DHT22;1760;52.480;13.422;2022-07-23T02:17:31;19.30;99.90
3492;DHT22;1760;52.480;13.422;2022-07-23T02:19:58;19.30;99.90
3492;DHT22;1760;52.480;13.422;2022-07-23T02:22:25;19.30;99.90
3492;DHT22;1760;52.480;13.422;2022-07-23T02:24:51;19.20;99.90
3492;DHT22;1760;52.480;13.422;2022-07-23T02:27:18;19.20;99.90
3492;DHT22;1760;52.480;13.422;2022-07-23T02:29:45;19.20;99.90
3492;DHT22;1760;52.480;13.422;2022-07-23T02:32:13;19.20;99.90
3492;DHT22;1760;52.480;13.422;2022-07-23T02:34:40;19.30;99.90
3492;DHT22;1760;52.480;13.422;2022-07-23T02:37:07;19.30;99.90
3492;DHT22;1760;52.480;13.422;2022-07-23T02:39:53;19.30;99.90
3492;DHT22;1760;52.480;13.422;2022-07-23T02:42:20;19.30;99.90
3492;DHT22;1760;52.480;13.422;2022-07-23T02:44:48;19.30;99.90
3492;DHT22;1760;52.480;13.422;2022-07-23T02:47:17;19.30;99.90
3492;DHT22;1760;52.480;13.422;2022-07-23T02:49:44;19.30;99.90
3492;DHT22;1760;52.480;13.422;2022-07-23T02:52:10;19.30;99.90
3492;DHT22;1760;52.480;13.422;2022-07-23T02:54:38;19.30;99.90
3492;DHT22;1760;52.480;13.422;2022-07-23T02:57:04;19.20;99.90
3492;DHT22;1760;52.480;13.422;2022-07-23T02:59:33;19.20;99.90
3492;DHT22;1760;52.480;13.422;2022-07-23T03:02:00;19.20;99.90
3492;DHT22;1760;52.480;13.422;2022-07-23T03:04:30;19.20;99.90
3492;DHT22;1760;52.480;13.422;2022-07-23T03:06:57;19.20;99.90
3492;DHT22;1760;52.480;13.422;2022-07-23T03:09:24;19.20;99.90
3492;DHT22;1760;52.480;13.422;2022-07-23T03:11:52;19.20;99.90
3492;DHT22;1760;52.480;13.422;2022-07-23T03:14:19;19.10;99.90
3492;DHT22;1760;52.480;13.422;2022-07-23T03:16:46;19.10;99.90
3492;DHT22;1760;52.480;13.422;2022-07-23T03:19:15;19.10;99.90
3492;DHT22;1760;52.480;13.422;2022-07-23T03:21:43;19.10;99.90
3492;DHT22;1760;52.480;13.422;2022-07-23T03:24:10;19.10;99.90
3492;DHT22;1760;52.480;13.422;2022-07-23T03:26:37;19.10;99.90
3492;DHT22;1760;52.480;13.422;2022-07-23T03:29:04;19.10;99.90
3492;DHT22;1760;52.480;13.422;2022-07-23T03:31:31;19.10;99.90
3492;DHT22;1760;52.480;13.422;2022-07-23T03:33:58;19.10;99.90
3492;DHT22;1760;52.480;13.422;2022-07-23T03:36:25;19.00;99.90
3492;DHT22;1760;52.480;13.422;2022-07-23T03:38:53;19.10;99.90
3492;DHT22;1760;52.480;13.422;2022-07-23T03:41:20;19.10;99.90
3492;DHT22;1760;52.480;13.422;2022-07-23T03:43:47;19.10;99.90
3492;DHT22;1760;52.480;13.422;2022-07-23T03:46:14;19.10;99.90
3492;DHT22;1760;52.480;13.422;2022-07-23T03:48:41;19.10;99.90
3492;DHT22;1760;52.480;13.422;2022-07-23T03:51:08;19.00;99.90
3492;DHT22;1760;52.480;13.422;2022-07-23T03:53:34;19.00;99.90
3492;DHT22;1760;52.480;13.422;2022-07-23T03:56:03;19.00;99.90
3492;DHT22;1760;52.480;13.422;2022-07-23T03:58:30;19.00;99.90
3492;DHT22;1760;52.480;13.422;2022-07-23T04:00:56;18.90;99.90
3492;DHT22;1760;52.480;13.422;2022-07-23T04:03:23;18.90;99.90
3492;DHT22;1760;52.480;13.422;2022-07-23T04:05:50;18.80;99.90
3492;DHT22;1760;52.480;13.422;2022-07-23T04:08:19;18.80;99.90
3492;DHT22;1760;52.480;13.422;2022-07-23T04:10:45;18.80;99.90
3492;DHT22;1760;52.480;13.422;2022-07-23T04:13:13;18.80;99.90
3492;DHT22;1760;52.480;13.422;2022-07-23T04:15:40;18.80;99.90
3492;DHT22;1760;52.480;13.422;2022-07-23T04:18:10;18.70;99.90
3492;DHT22;1760;52.480;13.422;2022-07-23T04:20:37;18.70;99.90
3492;DHT22;1760;52.480;13.422;2022-07-23T04:23:04;18.70;99.90
3492;DHT22;1760;52.480;13.422;2022-07-23T04:25:30;18.70;99.90
3492;DHT22;1760;52.480;13.422;2022-07-23T04:27:57;18.70;99.90
3492;DHT22;1760;52.480;13.422;2022-07-23T04:30:25;18.60;99.90
3492;DHT22;1760;52.480;13.422;2022-07-23T04:32:52;18.60;99.90
3492;DHT22;1760;52.480;13.422;2022-07-23T04:35:19;18.60;99.90
3492;DHT22;1760;52.480;13.422;2022-07-23T04:37:48;18.60;99.90
3492;DHT22;1760;52.480;13.422;2022-07-23T04:40:14;18.60;99.90
3492;DHT22;1760;52.480;13.422;2022-07-23T04:42:41;18.60;99.90
3492;DHT22;1760;52.480;13.422;2022-07-23T04:45:08;18.60;99.90
3492;DHT22;1760;52.480;13.422;2022-07-23T04:47:37;18.50;99.90
3492;DHT22;1760;52.480;13.422;2022-07-23T04:50:04;18.30;99.90
3492;DHT22;1760;52.480;13.422;2022-07-23T04:52:31;18.20;99.90
3492;DHT22;1760;52.480;13.422;2022-07-23T04:54:58;18.10;99.90
3492;DHT22;1760;52.480;13.422;2022-07-23T04:57:25;18.00;99.90
3492;DHT22;1760;52.480;13.422;2022-07-23T04:59:51;17.80;99.90
3492;DHT22;1760;52.480;13.422;2022-07-23T05:02:18;17.80;99.90
3492;DHT22;1760;52.480;13.422;2022-07-23T05:04:48;17.70;99.90
3492;DHT22;1760;52.480;13.422;2022-07-23T05:07:15;17.60;99.90
3492;DHT22;1760;52.480;13.422;2022-07-23T05:09:42;17.60;99.90
3492;DHT22;1760;52.480;13.422;2022-07-23T05:12:09;17.50;99.90
3492;DHT22;1760;52.480;13.422;2022-07-23T05:14:36;17.40;99.90
3492;DHT22;1760;52.480;13.422;2022-07-23T05:17:12;17.50;99.90
3492;DHT22;1760;52.480;13.422;2022-07-23T05:19:39;17.40;99.90
3492;DHT22;1760;52.480;13.422;2022-07-23T05:22:07;17.30;99.90
3492;DHT22;1760;52.480;13.422;2022-07-23T05:24:34;17.30;99.90
3492;DHT22;1760;52.480;13.422;2022-07-23T05:27:00;17.20;99.90
3492;DHT22;1760;52.480;13.422;2022-07-23T05:29:27;17.20;99.90
3492;DHT22;1760;52.480;13.422;2022-07-23T05:31:54;17.10;99.90
3492;DHT22;1760;52.480;13.422;2022-07-23T05:34:21;17.10;99.90
3492;DHT22;1760;52.480;13.422;2022-07-23T05:36:47;17.20;99.90
3492;DHT22;1760;52.480;13.422;2022-07-23T05:39:16;17.20;99.90
3492;DHT22;1760;52.480;13.422;2022-07-23T05:41:43;17.30;99.90
3492;DHT22;1760;52.480;13.422;2022-07-23T05:44:10;17.30;99.90
3492;DHT22;1760;52.480;13.422;2022-07-23T05:46:37;17.40;99.90
3492;DHT22;1760;52.480;13.422;2022-07-23T05:49:04;17.30;99.90
3492;DHT22;1760;52.480;13.422;2022-07-23T05:51:31;17.30;99.90
3492;DHT22;1760;52.480;13.422;2022-07-23T05:53:57;17.20;99.90
3492;DHT22;1760;52.480;13.422;2022-07-23T05:56:25;17.20;99.90
3492;DHT22;1760;52.480;13.422;2022-07-23T05:58:52;17.20;99.90
3492;DHT22;1760;52.480;13.422;2022-07-23T06:01:21;17.20;99.90
3492;DHT22;1760;52.480;13.422;2022-07-23T06:03:48;17.30;99.90
3492;DHT22;1760;52.480;13.422;2022-07-23T06:06:15;17.30;99.90
3492;DHT22;1760;52.480;13.422;2022-07-23T06:08:42;17.20;99.90
3492;DHT22;1760;52.480;13.422;2022-07-23T06:11:09;17.20;99.90
3492;DHT22;1760;52.480;13.422;2022-07-23T06:13:37;17.20;99.90
3492;DHT22;1760;52.480;13.422;2022-07-23T06:16:04;17.10;99.90
3492;DHT22;1760;52.480;13.422;2022-07-23T06:18:31;17.20;99.90
3492;DHT22;1760;52.480;13.422;2022-07-23T06:20:58;17.10;99.90
3492;DHT22;1760;52.480;13.422;2022-07-23T06:23:25;17.10;99.90
3492;DHT22;1760;52.480;13.422;2022-07-23T06:25:52;17.10;99.90
3492;DHT22;1760;52.480;13.422;2022-07-23T06:28:18;17.20;99.90
3492;DHT22;1760;52.480;13.422;2022-07-23T06:30:47;17.30;99.90
3492;DHT22;1760;52.480;13.422;2022-07-23T06:33:13;17.30;99.90
3492;DHT22;1760;52.480;13.422;2022-07-23T06:35:42;17.30;99.90
3492;DHT22;1760;52.480;13.422;2022-07-23T06:38:09;17.30;99.90
3492;DHT22;1760;52.480;13.422;2022-07-23T06:40:36;17.30;99.90
3492;DHT22;1760;52.480;13.422;2022-07-23T06:43:02;17.40;99.90
3492;DHT22;1760;52.480;13.422;2022-07-23T06:45:29;17.40;99.90
3492;DHT22;1760;52.480;13.422;2022-07-23T06:47:58;17.40;99.90
3492;DHT22;1760;52.480;13.422;2022-07-23T06:50:25;17.40;99.90
3492;DHT22;1760;52.480;13.422;2022-07-23T06:52:51;17.50;99.90
3492;DHT22;1760;52.480;13.422;2022-07-23T06:55:18;17.50;99.90
3492;DHT22;1760;52.480;13.422;2022-07-23T06:57:45;17.60;99.90
3492;DHT22;1760;52.480;13.422;2022-07-23T07:00:12;17.70;99.90
3492;DHT22;1760;52.480;13.422;2022-07-23T07:02:39;17.70;99.90
3492;DHT22;1760;52.480;13.422;2022-07-23T07:05:08;17.70;99.90
3492;DHT22;1760;52.480;13.422;2022-07-23T07:07:35;17.80;99.90
3492;DHT22;1760;52.480;13.422;2022-07-23T07:10:02;17.80;99.90
3492;DHT22;1760;52.480;13.422;2022-07-23T07:12:29;17.80;99.90
3492;DHT22;1760;52.480;13.422;2022-07-23T07:14:56;17.80;99.90
3492;DHT22;1760;52.480;13.422;2022-07-23T07:17:23;17.90;99.90
3492;DHT22;1760;52.480;13.422;2022-07-23T07:19:52;17.90;99.90
3492;DHT22;1760;52.480;13.422;2022-07-23T07:22:20;17.90;99.90
3492;DHT22;1760;52.480;13.422;2022-07-23T07:24:47;17.90;99.90
3492;DHT22;1760;52.480;13.422;2022-07-23T07:27:14;17.90;99.90
3492;DHT22;1760;52.480;13.422;2022-07-23T07:29:41;17.90;99.90
3492;DHT22;1760;52.480;13.422;2022-07-23T07:32:10;17.90;99.90
3492;DHT22;1760;52.480;13.422;2022-07-23T07:34:37;17.90;99.90
3492;DHT22;1760;52.480;13.422;2022-07-23T07:37:03;17.90;99.90
3492;DHT22;1760;52.480;13.422;2022-07-23T07:39:32;17.90;99.90
3492;DHT22;1760;52.480;13.422;2022-07-23T07:41:58;18.00;99.90
3492;DHT22;1760;52.480;13.422;2022-07-23T07:44:25;18.10;99.90
3492;DHT22;1760;52.480;13.422;2022-07-23T07:46:52;18.10;99.90
3492;DHT22;1760;52.480;13.422;2022-07-23T07:49:19;18.20;99.90
3492;DHT22;1760;52.480;13.422;2022-07-23T07:51:48;18.40;99.90
3492;DHT22;1760;52.480;13.422;2022-07-23T07:54:15;18.50;99.90
3492;DHT22;1760;52.480;13.422;2022-07-23T07:56:43;18.50;99.90
3492;DHT22;1760;52.480;13.422;2022-07-23T07:59:10;18.60;99.90
3492;DHT22;1760;52.480;13.422;2022-07-23T08:01:37;18.60;99.90
3492;DHT22;1760;52.480;13.422;2022-07-23T08:04:04;18.70;99.90
3492;DHT22;1760;52.480;13.422;2022-07-23T08:06:31;18.80;99.90
3492;DHT22;1760;52.480;13.422;2022-07-23T08:08:58;18.90;99.90
3492;DHT22;1760;52.480;13.422;2022-07-23T08:11:24;18.90;99.90
3492;DHT22;1760;52.480;13.422;2022-07-23T08:13:53;19.00;99.90
3492;DHT22;1760;52.480;13.422;2022-07-23T08:16:19;19.10;99.90
3492;DHT22;1760;52.480;13.422;2022-07-23T08:18:46;19.40;99.90
3492;DHT22;1760;52.480;13.422;2022-07-23T08:21:13;19.60;99.90
3492;DHT22;1760;52.480;13.422;2022-07-23T08:23:40;20.10;99.90
3492;DHT22;1760;52.480;13.422;2022-07-23T08:26:10;20.60;99.90
3492;DHT22;1760;52.480;13.422;2022-07-23T08:28:38;20.90;99.90
3492;DHT22;1760;52.480;13.422;2022-07-23T08:31:07;21.20;99.90
3492;DHT22;1760;52.480;13.422;2022-07-23T08:33:35;22.00;99.90
3492;DHT22;1760;52.480;13.422;2022-07-23T08:36:05;22.40;99.90
3492;DHT22;1760;52.480;13.422;2022-07-23T08:38:32;22.70;99.90
3492;DHT22;1760;52.480;13.422;2022-07-23T08:40:59;22.80;99.90
3492;DHT22;1760;52.480;13.422;2022-07-23T08:43:27;22.70;99.90
3492;DHT22;1760;52.480;13.422;2022-07-23T08:45:56;22.60;99.90
3492;DHT22;1760;52.480;13.422;2022-07-23T08:48:27;22.70;99.90
3492;DHT22;1760;52.480;13.422;2022-07-23T08:50:58;23.00;99.90
3492;DHT22;1760;52.480;13.422;2022-07-23T08:53:27;23.50;99.90
3492;DHT22;1760;52.480;13.422;2022-07-23T08:55:56;24.40;99.90
3492;DHT22;1760;52.480;13.422;2022-07-23T08:58:23;25.40;99.90
3492;DHT22;1760;52.480;13.422;2022-07-23T09:00:50;26.10;99.90
3492;DHT22;1760;52.480;13.422;2022-07-23T09:03:20;26.90;99.90
3492;DHT22;1760;52.480;13.422;2022-07-23T09:05:49;27.70;99.90
3492;DHT22;1760;52.480;13.422;2022-07-23T09:08:20;28.50;99.90
3492;DHT22;1760;52.480;13.422;2022-07-23T09:10:49;28.80;99.90
3492;DHT22;1760;52.480;13.422;2022-07-23T09:13:31;28.60;99.90
3492;DHT22;1760;52.480;13.422;2022-07-23T09:16:00;28.20;99.90
3492;DHT22;1760;52.480;13.422;2022-07-23T09:18:32;28.20;99.90
3492;DHT22;1760;52.480;13.422;2022-07-23T09:21:23;28.20;99.90
3492;DHT22;1760;52.480;13.422;2022-07-23T09:23:53;28.50;99.90
3492;DHT22;1760;52.480;13.422;2022-07-23T09:26:22;28.80;99.90
3492;DHT22;1760;52.480;13.422;2022-07-23T09:28:58;29.10;99.10
3492;DHT22;1760;52.480;13.422;2022-07-23T09:31:31;28.90;97.90
3492;DHT22;1760;52.480;13.422;2022-07-23T09:34:07;28.10;99.10
3492;DHT22;1760;52.480;13.422;2022-07-23T09:36:36;27.40;99.90
3492;DHT22;1760;52.480;13.422;2022-07-23T09:39:03;26.70;99.90
3492;DHT22;1760;52.480;13.422;2022-07-23T09:41:35;26.10;99.90
3492;DHT22;1760;52.480;13.422;2022-07-23T09:44:10;25.60;99.90
3492;DHT22;1760;52.480;13.422;2022-07-23T09:46:41;25.30;99.90
3492;DHT22;1760;52.480;13.422;2022-07-23T09:49:17;25.60;99.90
3492;DHT22;1760;52.480;13.422;2022-07-23T09:51:54;25.90;99.90
3492;DHT22;1760;52.480;13.422;2022-07-23T09:54:28;26.10;99.90
3492;DHT22;1760;52.480;13.422;2022-07-23T09:56:57;26.10;99.90
3492;DHT22;1760;52.480;13.422;2022-07-23T09:59:26;26.30;99.90
3492;DHT22;1760;52.480;13.422;2022-07-23T10:01:55;27.10;99.90
3492;DHT22;1760;52.480;13.422;2022-07-23T10:04:23;27.80;99.90
3492;DHT22;1760;52.480;13.422;2022-07-23T10:06:54;28.40;99.40
3492;DHT22;1760;52.480;13.422;2022-07-23T10:09:24;28.90;99.50
3492;DHT22;1760;52.480;13.422;2022-07-23T10:11:57;28.90;96.90
3492;DHT22;1760;52.480;13.422;2022-07-23T10:14:34;29.20;96.70
3492;DHT22;1760;52.480;13.422;2022-07-23T10:17:02;28.70;96.00
3492;DHT22;1760;52.480;13.422;2022-07-23T10:19:30;28.10;95.80
3492;DHT22;1760;52.480;13.422;2022-07-23T10:22:01;27.70;96.60
3492;DHT22;1760;52.480;13.422;2022-07-23T10:24:40;27.60;96.80
3492;DHT22;1760;52.480;13.422;2022-07-23T10:27:30;27.30;97.20
3492;DHT22;1760;52.480;13.422;2022-07-23T10:30:02;27.00;96.70
3492;DHT22;1760;52.480;13.422;2022-07-23T10:32:43;26.70;97.80
3492;DHT22;1760;52.480;13.422;2022-07-23T10:35:18;26.90;99.90
3492;DHT22;1760;52.480;13.422;2022-07-23T10:37:56;27.20;99.60
3492;DHT22;1760;52.480;13.422;2022-07-23T10:40:23;27.10;97.80
3492;DHT22;1760;52.480;13.422;2022-07-23T10:42:52;26.80;99.00
3492;DHT22;1760;52.480;13.422;2022-07-23T10:45:27;26.50;99.90
3492;DHT22;1760;52.480;13.422;2022-07-23T10:47:55;26.20;99.50
3492;DHT22;1760;52.480;13.422;2022-07-23T10:50:23;25.90;99.90
3492;DHT22;1760;52.480;13.422;2022-07-23T10:53:18;25.60;99.90
3492;DHT22;1760;52.480;13.422;2022-07-23T10:55:47;25.40;99.90
3492;DHT22;1760;52.480;13.422;2022-07-23T10:58:19;25.50;99.90
3492;DHT22;1760;52.480;13.422;2022-07-23T11:00:46;25.40;99.90
3492;DHT22;1760;52.480;13.422;2022-07-23T11:03:33;25.30;99.90
3492;DHT22;1760;52.480;13.422;2022-07-23T11:06:04;25.40;99.90
3492;DHT22;1760;52.480;13.422;2022-07-23T11:08:33;25.20;99.90
3492;DHT22;1760;52.480;13.422;2022-07-23T11:11:12;25.10;99.90
3492;DHT22;1760;52.480;13.422;2022-07-23T11:13:45;25.00;99.90
3492;DHT22;1760;52.480;13.422;2022-07-23T11:16:23;25.00;99.90
3492;DHT22;1760;52.480;13.422;2022-07-23T11:18:59;25.30;99.90
3492;DHT22;1760;52.480;13.422;2022-07-23T11:21:57;25.40;99.90
3492;DHT22;1760;52.480;13.422;2022-07-23T11:24:25;25.80;99.90
3492;DHT22;1760;52.480;13.422;2022-07-23T11:27:03;26.00;99.90
3492;DHT22;1760;52.480;13.422;2022-07-23T11:29:47;26.10;99.90
3492;DHT22;1760;52.480;13.422;2022-07-23T11:32:25;26.30;99.90
3492;DHT22;1760;52.480;13.422;2022-07-23T11:34:54;26.50;99.90
3492;DHT22;1760;52.480;13.422;2022-07-23T11:37:31;26.50;99.90
3492;DHT22;1760;52.480;13.422;2022-07-23T11:40:03;26.50;99.30
3492;DHT22;1760;52.480;13.422;2022-07-23T11:42:30;26.20;99.90
3492;DHT22;1760;52.480;13.422;2022-07-23T11:44:57;26.20;99.90
3492;DHT22;1760;52.480;13.422;2022-07-23T11:47:26;26.20;99.90
3492;DHT22;1760;52.480;13.422;2022-07-23T11:49:54;26.10;99.90
3492;DHT22;1760;52.480;13.422;2022-07-23T11:52:21;25.90;99.40
3492;DHT22;1760;52.480;13.422;2022-07-23T11:54:50;25.60;99.90
3492;DHT22;1760;52.480;13.422;2022-07-23T11:57:20;25.40;99.90
3492;DHT22;1760;52.480;13.422;2022-07-23T11:59:51;25.60;99.90
3492;DHT22;1760;52.480;13.422;2022-07-23T12:02:19;25.80;99.90
3492;DHT22;1760;52.480;13.422;2022-07-23T12:04:48;25.80;99.90
3492;DHT22;1760;52.480;13.422;2022-07-23T12:07:32;25.80;99.90
3492;DHT22;1760;52.480;13.422;2022-07-23T12:10:03;25.90;99.90
3492;DHT22;1760;52.480;13.422;2022-07-23T12:12:37;26.00;99.70
3492;DHT22;1760;52.480;13.422;2022-07-23T12:15:05;25.90;99.90
3492;DHT22;1760;52.480;13.422;2022-07-23T12:17:34;25.60;99.70
3492;DHT22;1760;52.480;13.422;2022-07-23T12:20:03;25.40;99.90
3492;DHT22;1760;52.480;13.422;2022-07-23T12:22:36;25.30;99.90
3492;DHT22;1760;52.480;13.422;2022-07-23T12:25:06;25.10;99.90
3492;DHT22;1760;52.480;13.422;2022-07-23T12:27:33;25.00;99.90
3492;DHT22;1760;52.480;13.422;2022-07-23T12:33:14;24.90;99.90
3492;DHT22;1760;52.480;13.422;2022-07-23T12:35:44;25.00;99.90
3492;DHT22;1760;52.480;13.422;2022-07-23T12:38:18;25.10;99.90
3492;DHT22;1760;52.480;13.422;2022-07-23T12:40:56;25.20;99.90
3492;DHT22;1760;52.480;13.422;2022-07-23T12:43:26;25.10;99.90
3492;DHT22;1760;52.480;13.422;2022-07-23T12:45:54;25.10;99.90
3492;DHT22;1760;52.480;13.422;2022-07-23T12:48:30;25.10;99.90
3492;DHT22;1760;52.480;13.422;2022-07-23T12:51:00;25.20;99.90
3492;DHT22;1760;52.480;13.422;2022-07-23T12:53:30;25.30;99.90
3492;DHT22;1760;52.480;13.422;2022-07-23T12:56:00;25.20;99.90
3492;DHT22;1760;52.480;13.422;2022-07-23T12:58:38;25.20;99.90
3492;DHT22;1760;52.480;13.422;2022-07-23T13:01:05;25.30;99.90
3492;DHT22;1760;52.480;13.422;2022-07-23T13:03:36;25.40;99.90
3492;DHT22;1760;52.480;13.422;2022-07-23T13:06:05;25.30;99.90
3492;DHT22;1760;52.480;13.422;2022-07-23T13:08:34;25.30;99.90
3492;DHT22;1760;52.480;13.422;2022-07-23T13:11:02;25.20;99.90
3492;DHT22;1760;52.480;13.422;2022-07-23T13:13:31;25.00;99.90
3492;DHT22;1760;52.480;13.422;2022-07-23T13:15:59;25.00;99.90
3492;DHT22;1760;52.480;13.422;2022-07-23T13:18:27;25.00;99.90
3492;DHT22;1760;52.480;13.422;2022-07-23T13:20:55;25.00;99.90
3492;DHT22;1760;52.480;13.422;2022-07-23T13:23:23;25.10;99.90
3492;DHT22;1760;52.480;13.422;2022-07-23T13:25:50;25.10;99.90
3492;DHT22;1760;52.480;13.422;2022-07-23T13:28:18;25.20;99.90
3492;DHT22;1760;52.480;13.422;2022-07-23T13:30:45;25.40;99.90
3492;DHT22;1760;52.480;13.422;2022-07-23T13:33:15;25.70;99.90
3492;DHT22;1760;52.480;13.422;2022-07-23T13:35:42;25.90;99.90
3492;DHT22;1760;52.480;13.422;2022-07-23T13:38:10;25.90;99.90
3492;DHT22;1760;52.480;13.422;2022-07-23T13:40:38;25.80;99.40
3492;DHT22;1760;52.480;13.422;2022-07-23T13:43:06;25.90;99.30
3492;DHT22;1760;52.480;13.422;2022-07-23T13:45:33;25.90;98.50
3492;DHT22;1760;52.480;13.422;2022-07-23T13:48:01;25.80;98.60
3492;DHT22;1760;52.480;13.422;2022-07-23T13:50:28;25.50;98.80
3492;DHT22;1760;52.480;13.422;2022-07-23T13:52:55;25.20;99.20
3492;DHT22;1760;52.480;13.422;2022-07-23T13:55:23;25.00;99.90
3492;DHT22;1760;52.480;13.422;2022-07-23T13:57:50;24.90;99.90
3492;DHT22;1760;52.480;13.422;2022-07-23T14:00:17;24.90;99.90
3492;DHT22;1760;52.480;13.422;2022-07-23T14:02:44;25.00;99.90
3492;DHT22;1760;52.480;13.422;2022-07-23T14:05:12;25.00;99.90
3492;DHT22;1760;52.480;13.422;2022-07-23T14:07:39;25.00;99.90
3492;DHT22;1760;52.480;13.422;2022-07-23T14:10:09;25.10;99.90
3492;DHT22;1760;52.480;13.422;2022-07-23T14:12:37;25.30;99.90
3492;DHT22;1760;52.480;13.422;2022-07-23T14:15:06;25.30;99.90
3492;DHT22;1760;52.480;13.422;2022-07-23T14:17:34;25.30;99.60
3492;DHT22;1760;52.480;13.422;2022-07-23T14:20:00;25.40;99.90
3492;DHT22;1760;52.480;13.422;2022-07-23T14:22:27;25.30;99.70
3492;DHT22;1760;52.480;13.422;2022-07-23T14:24:54;25.40;99.90
3492;DHT22;1760;52.480;13.422;2022-07-23T14:27:23;25.40;99.90
3492;DHT22;1760;52.480;13.422;2022-07-23T14:29:51;25.40;99.80
3492;DHT22;1760;52.480;13.422;2022-07-23T14:32:20;25.40;98.60
3492;DHT22;1760;52.480;13.422;2022-07-23T14:34:47;25.30;98.20
3492;DHT22;1760;52.480;13.422;2022-07-23T14:37:14;25.30;98.60
3492;DHT22;1760;52.480;13.422;2022-07-23T14:39:42;25.30;98.60
3492;DHT22;1760;52.480;13.422;2022-07-23T14:42:10;25.30;99.30
3492;DHT22;1760;52.480;13.422;2022-07-23T14:44:38;25.40;98.70
3492;DHT22;1760;52.480;13.422;2022-07-23T14:47:06;25.50;97.90
3492;DHT22;1760;52.480;13.422;2022-07-23T14:49:33;25.50;97.40
3492;DHT22;1760;52.480;13.422;2022-07-23T14:52:02;25.50;97.10
3492;DHT22;1760;52.480;13.422;2022-07-23T14:54:29;25.40;96.20
3492;DHT22;1760;52.480;13.422;2022-07-23T14:56:57;25.50;96.10
3492;DHT22;1760;52.480;13.422;2022-07-23T14:59:25;25.40;96.00
3492;DHT22;1760;52.480;13.422;2022-07-23T15:01:52;25.30;96.40
3492;DHT22;1760;52.480;13.422;2022-07-23T15:04:24;25.30;96.30
3492;DHT22;1760;52.480;13.422;2022-07-23T15:06:51;25.30;96.10
3492;DHT22;1760;52.480;13.422;2022-07-23T15:09:18;25.40;96.00
3492;DHT22;1760;52.480;13.422;2022-07-23T15:11:45;25.40;95.70
3492;DHT22;1760;52.480;13.422;2022-07-23T15:14:12;25.40;96.00
3492;DHT22;1760;52.480;13.422;2022-07-23T15:16:40;25.40;95.70
3492;DHT22;1760;52.480;13.422;2022-07-23T15:19:07;25.40;96.50
3492;DHT22;1760;52.480;13.422;2022-07-23T15:21:35;25.40;95.90
3492;DHT22;1760;52.480;13.422;2022-07-23T15:24:02;25.60;96.20
3492;DHT22;1760;52.480;13.422;2022-07-23T15:26:29;25.60;94.90
3492;DHT22;1760;52.480;13.422;2022-07-23T15:28:57;25.60;93.30
3492;DHT22;1760;52.480;13.422;2022-07-23T15:31:25;25.50;93.20
3492;DHT22;1760;52.480;13.422;2022-07-23T15:33:52;25.50;93.00
3492;DHT22;1760;52.480;13.422;2022-07-23T15:36:19;25.50;92.90
3492;DHT22;1760;52.480;13.422;2022-07-23T15:38:48;25.50;93.20
3492;DHT22;1760;52.480;13.422;2022-07-23T15:41:15;25.60;93.40
3492;DHT22;1760;52.480;13.422;2022-07-23T15:43:43;25.70;93.20
3492;DHT22;1760;52.480;13.422;2022-07-23T15:46:12;25.80;92.70
3492;DHT22;1760;52.480;13.422;2022-07-23T15:48:39;25.70;92.50
3492;DHT22;1760;52.480;13.422;2022-07-23T15:51:06;25.60;92.40
3492;DHT22;1760;52.480;13.422;2022-07-23T15:53:33;25.60;92.50
3492;DHT22;1760;52.480;13.422;2022-07-23T15:56:03;25.60;92.00
3492;DHT22;1760;52.480;13.422;2022-07-23T15:58:30;25.60;91.90